M/s Straumvik — LEYJ — position and weather

sailwx.info

Track history (hours):
 
Tides and Currents Weather Stations Pressure Air Temp Water Temp Dewpoint Dewpoint Depression Visibility Wind Speed Wind Dir Waves Ship Positions

M/s Straumvik

Last reported at 2014-Oct-20 06:33 UTC. Time now 2014-Oct-24 13:35 UTC.
Position N 64°51' E 011°14'.

Length 50 m; draft 5 m.

Type: Ship. MMSI: 258260000.

Date/timePositionNaut miles runAvg speedWind from/ knotsBaromVisibWave heightAir tempDewpointWater temp
2014-Oct-20 06:33N 64°51' E 011°14'8 7.7
2014-Oct-20 05:33N 64°57' E 011°28'158 7.9
2014-Oct-19 09:26N 67°19' E 014°18'7 7.6
2014-Oct-19 08:33N 67°25' E 014°27'165 7.3
2014-Oct-18 10:06N 69°37' E 018°55'2 4.4
2014-Oct-18 09:33N 69°39' E 018°58'113 2.6
2014-Oct-16 14:11N 70°40' E 023°40'0 0.0
2014-Oct-16 13:33N 70°40' E 023°40'0 0.0
2014-Oct-16 12:21N 70°40' E 023°40'0 0.0
2014-Oct-16 11:26N 70°40' E 023°40'0 0.0
2014-Oct-16 10:33N 70°40' E 023°40'0 0.0
2014-Oct-16 09:05N 70°40' E 023°40'2 0.1
2014-Oct-15 10:13N 70°39' E 023°37'2 2.2
2014-Oct-15 09:24N 70°40' E 023°40'0 0.0
2014-Oct-15 08:30N 70°40' E 023°40'0 0.0
2014-Oct-15 07:33N 70°40' E 023°40'0 0.0
2014-Oct-15 06:23N 70°40' E 023°40'4 0.1
2014-Oct-13 03:16N 70°42' E 023°29'  
2014-Oct-10 18:32N 67°28' E 014°24'6 6.5
2014-Oct-10 17:33N 67°22' E 014°24'6 6.5
2014-Oct-10 16:33N 67°17' E 014°13'6 5.7
2014-Oct-10 15:33N 67°15' E 014°27'2110.4
2014-Oct-10 13:33N 67°14' E 015°21'2 1.5
2014-Oct-10 12:30N 67°15' E 015°25'0 0.0
2014-Oct-10 11:33N 67°15' E 015°25'0 0.0
2014-Oct-10 10:33N 67°15' E 015°25'21 6.8
2014-Oct-10 07:26N 67°15' E 014°30'  
Track history (hours):
 
Tides and Currents Weather Stations Pressure Air Temp Water Temp Dewpoint Dewpoint Depression Visibility Wind Speed Wind Dir Waves Ship Positions

M/s Straumvik

Last reported at 2014-Oct-20 06:33 UTC. Time now 2014-Oct-24 13:35 UTC.
Position N 64°51' E 011°14'.

Length 50 m; draft 5 m.

Type: Ship. MMSI: 258260000.

Date/timePositionNaut miles runAvg speedWind from/ knotsBaromVisibWave heightAir tempDewpointWater temp
2014-Oct-20 06:33N 64°51' E 011°14'8 7.7
2014-Oct-20 05:33N 64°57' E 011°28'158 7.9
2014-Oct-19 09:26N 67°19' E 014°18'7 7.6
2014-Oct-19 08:33N 67°25' E 014°27'165 7.3
2014-Oct-18 10:06N 69°37' E 018°55'2 4.4
2014-Oct-18 09:33N 69°39' E 018°58'113 2.6
2014-Oct-16 14:11N 70°40' E 023°40'0 0.0
2014-Oct-16 13:33N 70°40' E 023°40'0 0.0
2014-Oct-16 12:21N 70°40' E 023°40'0 0.0
2014-Oct-16 11:26N 70°40' E 023°40'0 0.0
2014-Oct-16 10:33N 70°40' E 023°40'0 0.0
2014-Oct-16 09:05N 70°40' E 023°40'2 0.1
2014-Oct-15 10:13N 70°39' E 023°37'2 2.2
2014-Oct-15 09:24N 70°40' E 023°40'0 0.0
2014-Oct-15 08:30N 70°40' E 023°40'0 0.0
2014-Oct-15 07:33N 70°40' E 023°40'0 0.0
2014-Oct-15 06:23N 70°40' E 023°40'4 0.1
2014-Oct-13 03:16N 70°42' E 023°29'  
2014-Oct-10 18:32N 67°28' E 014°24'6 6.5
2014-Oct-10 17:33N 67°22' E 014°24'6 6.5
2014-Oct-10 16:33N 67°17' E 014°13'6 5.7
2014-Oct-10 15:33N 67°15' E 014°27'2110.4
2014-Oct-10 13:33N 67°14' E 015°21'2 1.5
2014-Oct-10 12:30N 67°15' E 015°25'0 0.0
2014-Oct-10 11:33N 67°15' E 015°25'0 0.0
2014-Oct-10 10:33N 67°15' E 015°25'21 6.8
2014-Oct-10 07:26N 67°15' E 014°30'  

Dump ship's entire track history